Time;durP1;ratioP1;P1;durP2;ratioP2;P2;SDS_P1;SDS_P2;PMS_P1;PMS_P2;Temp;Humidity;BMP_temperature;BMP_pressure;BME280_temperature;BME280_humidity;BME280_pressure;Samples;Min_cycle;Max_cycle;Signal;HPM_P1;HPM_P2
2022/07/03 00:00:32;;;;;;;6.78;4.57;;;;;;;19.19;51.51;99182.47;5030212;28;20076;-60
2022/07/03 00:02:59;;;;;;;6.78;4.15;;;;;;;19.08;52.54;99180.28;5031883;28;20052;-61
2022/07/03 00:05:25;;;;;;;10.75;4.93;;;;;;;18.96;53.94;99178.88;5031397;28;20586;-61
2022/07/03 00:07:50;;;;;;;6.78;4.72;;;;;;;18.79;55.38;99168.72;5031773;28;20129;-61
2022/07/03 00:10:16;;;;;;;6.57;4.60;;;;;;;18.66;55.67;99158.72;5046559;28;20430;-60
2022/07/03 00:12:42;;;;;;;6.32;4.63;;;;;;;18.57;55.95;99157.81;5031680;28;20048;-61
2022/07/03 00:15:08;;;;;;;7.00;5.22;;;;;;;18.49;56.21;99159.28;5030072;28;20517;-60
2022/07/03 00:17:34;;;;;;;9.40;6.32;;;;;;;18.41;56.57;99156.50;5031659;28;20124;-61
2022/07/03 00:19:59;;;;;;;13.57;5.88;;;;;;;18.34;57.07;99163.03;5031300;28;20140;-60
2022/07/03 00:22:26;;;;;;;10.63;4.88;;;;;;;18.27;57.81;99162.63;5031401;28;20074;-60
2022/07/03 00:24:54;;;;;;;13.63;5.32;;;;;;;18.17;59.08;99152.03;5031126;28;20049;-61
2022/07/03 00:27:21;;;;;;;13.38;5.93;;;;;;;18.11;59.76;99150.53;5030305;28;20037;-60
2022/07/03 00:29:49;;;;;;;11.95;5.80;;;;;;;17.99;60.82;99142.16;5029908;28;20049;-60
2022/07/03 00:32:21;;;;;;;9.05;5.88;;;;;;;17.95;61.78;99149.19;5013555;28;20549;-60
2022/07/03 00:34:47;;;;;;;8.45;5.55;;;;;;;17.90;62.36;99139.34;5031277;28;20061;-60
2022/07/03 00:37:13;;;;;;;10.30;6.18;;;;;;;17.85;64.25;99150.13;5031263;28;20122;-61
2022/07/03 00:39:40;;;;;;;16.23;6.53;;;;;;;17.78;64.94;99144.34;5031356;28;20037;-60
2022/07/03 00:42:06;;;;;;;10.75;5.70;;;;;;;17.74;66.23;99146.00;5030019;28;20045;-59
2022/07/03 00:44:35;;;;;;;10.18;5.88;;;;;;;17.68;66.81;99139.91;5029833;28;20476;-61
2022/07/03 00:47:04;;;;;;;11.80;6.28;;;;;;;17.64;67.22;99147.72;5031433;28;20160;-59
2022/07/03 00:49:32;;;;;;;8.93;5.80;;;;;;;17.60;67.62;99144.03;5031347;28;20044;-60
2022/07/03 00:51:58;;;;;;;7.63;6.10;;;;;;;17.59;67.52;99145.13;5046325;28;20091;-60
2022/07/03 00:54:25;;;;;;;10.60;6.03;;;;;;;17.63;67.37;99146.13;5031128;28;20102;-61
2022/07/03 00:56:52;;;;;;;11.88;6.13;;;;;;;17.70;67.52;99143.06;5013615;28;20411;-61
2022/07/03 00:59:18;;;;;;;8.82;6.35;;;;;;;17.79;67.90;99140.56;5013159;28;20049;-60
2022/07/03 01:01:44;;;;;;;9.82;5.40;;;;;;;17.88;68.00;99149.53;5030886;28;20045;-59
2022/07/03 01:04:13;;;;;;;11.18;5.78;;;;;;;17.99;67.77;99147.50;5013156;28;20056;-61
2022/07/03 01:06:52;;;;;;;12.40;5.53;;;;;;;18.11;67.55;99140.59;5030822;28;20046;-60
2022/07/03 01:09:23;;;;;;;8.90;5.60;;;;;;;18.28;66.27;99156.16;5031149;28;20049;-60
2022/07/03 01:12:19;;;;;;;9.18;5.20;;;;;;;18.48;64.66;99148.88;5029866;28;20362;-60
2022/07/03 01:14:59;;;;;;;8.23;4.78;;;;;;;18.74;62.67;99160.78;5030605;28;20053;-61
2022/07/03 01:17:26;;;;;;;8.83;6.30;;;;;;;18.93;62.82;99154.50;5031257;28;20474;-61
2022/07/03 01:20:01;;;;;;;7.63;5.57;;;;;;;19.12;60.81;99157.91;5030985;28;20038;-60
2022/07/03 01:22:33;;;;;;;10.25;6.65;;;;;;;19.31;60.78;99152.41;5030179;28;20075;-61
2022/07/03 01:25:21;;;;;;;8.25;6.22;;;;;;;19.52;59.15;99145.50;5034568;28;20494;-60
2022/07/03 01:28:12;;;;;;;8.70;5.90;;;;;;;19.81;55.92;99146.25;5049921;28;20518;-60
2022/07/03 01:30:48;;;;;;;10.80;5.50;;;;;;;20.11;55.35;99142.81;5016511;28;20081;-60
2022/07/03 01:33:19;;;;;;;6.65;5.03;;;;;;;20.37;54.27;99150.28;5033055;28;20418;-61
2022/07/03 01:35:54;;;;;;;8.38;5.38;;;;;;;20.60;55.29;99153.78;5034021;28;20092;-60
2022/07/03 01:38:21;;;;;;;10.85;5.45;;;;;;;20.79;53.89;99154.31;5034643;28;20048;-60
2022/07/03 01:40:49;;;;;;;6.40;5.03;;;;;;;21.06;53.61;99145.25;5034287;28;20053;-60
2022/07/03 01:43:16;;;;;;;8.90;5.38;;;;;;;21.22;53.01;99150.97;5032905;28;20099;-60
2022/07/03 01:45:43;;;;;;;9.02;5.43;;;;;;;21.37;52.01;99151.69;5033941;28;20533;-60
2022/07/03 01:48:11;;;;;;;9.52;5.55;;;;;;;21.59;51.22;99154.25;5034315;28;20099;-61
2022/07/03 01:50:39;;;;;;;8.65;4.72;;;;;;;21.76;50.07;99151.53;5033654;28;20526;-60
2022/07/03 01:53:07;;;;;;;8.98;4.63;;;;;;;22.05;49.27;99152.03;5034178;28;20115;-60
2022/07/03 01:55:34;;;;;;;6.38;4.88;;;;;;;22.29;48.98;99148.84;5032490;28;20446;-61
2022/07/03 01:57:59;;;;;;;6.47;4.63;;;;;;;22.44;47.92;99143.75;5049280;28;20033;-60
2022/07/03 02:00:26;;;;;;;7.88;4.80;;;;;;;22.74;47.68;99145.72;5033674;28;20053;-60
2022/07/03 02:03:03;;;;;;;6.47;4.82;;;;;;;22.87;46.67;99145.47;5033960;28;20378;-60
2022/07/03 02:05:30;;;;;;;7.13;5.05;;;;;;;23.17;46.04;99153.63;5033595;28;20054;-60
2022/07/03 02:08:15;;;;;;;6.45;4.35;;;;;;;23.44;45.13;99163.19;5033931;28;20053;-60
2022/07/03 02:10:46;;;;;;;8.05;4.82;;;;;;;23.65;43.81;99151.56;5032270;28;20530;-59
2022/07/03 02:13:28;;;;;;;10.00;4.78;;;;;;;23.96;43.53;99151.19;5032399;28;20137;-60
2022/07/03 02:16:23;;;;;;;8.23;5.20;;;;;;;24.24;43.10;99151.44;5032607;28;20510;-59
2022/07/03 02:19:05;;;;;;;9.00;4.80;;;;;;;24.28;42.38;99152.34;5033353;28;20495;-60
2022/07/03 02:21:31;;;;;;;7.38;4.70;;;;;;;24.55;42.31;99150.16;5048897;28;20041;-60
2022/07/03 02:24:12;;;;;;;8.63;5.28;;;;;;;24.62;41.41;99156.63;5033403;28;20069;-59
2022/07/03 02:26:40;;;;;;;7.88;4.75;;;;;;;24.74;40.66;99146.91;5033214;28;20048;-60
2022/07/03 02:29:09;;;;;;;8.63;4.85;;;;;;;25.07;40.17;99144.09;5015311;28;20103;-60
2022/07/03 02:31:41;;;;;;;5.65;4.40;;;;;;;25.26;39.27;99146.25;5032029;28;20063;-60
2022/07/03 02:34:08;;;;;;;7.07;4.35;;;;;;;25.36;38.39;99152.03;5033069;28;20063;-60
2022/07/03 02:36:35;;;;;;;7.10;4.60;;;;;;;25.55;38.54;99140.56;5033045;28;20045;-60
2022/07/03 02:39:01;;;;;;;5.13;4.25;;;;;;;25.64;37.81;99145.06;5033144;28;20053;-60
2022/07/03 02:41:58;;;;;;;6.00;4.55;;;;;;;25.60;38.02;99143.03;5032931;28;20087;-60
2022/07/03 02:44:33;;;;;;;6.32;3.83;;;;;;;25.60;37.82;99148.47;5032486;28;20553;-60
2022/07/03 02:47:02;;;;;;;7.15;4.30;;;;;;;25.44;38.24;99152.22;5032955;28;20047;-60
2022/07/03 02:49:51;;;;;;;7.90;4.72;;;;;;;25.52;38.32;99143.16;5031549;28;20136;-60
2022/07/03 02:52:40;;;;;;;8.00;4.53;;;;;;;25.74;38.11;99148.09;5032330;28;20088;-60
2022/07/03 02:55:24;;;;;;;6.15;4.75;;;;;;;25.53;38.30;99150.16;5032918;28;20049;-60
2022/07/03 02:58:02;;;;;;;8.23;4.10;;;;;;;25.74;37.96;99147.31;5031496;28;20067;-60
2022/07/03 03:00:27;;;;;;;4.85;4.30;;;;;;;25.77;38.03;99150.13;5031118;28;20065;-60
2022/07/03 03:02:55;;;;;;;6.45;4.07;;;;;;;25.87;38.05;99154.28;5031430;28;20099;-59
2022/07/03 03:05:28;;;;;;;8.30;4.70;;;;;;;25.90;38.14;99147.38;5030766;28;20510;-60
2022/07/03 03:08:03;;;;;;;7.03;4.75;;;;;;;26.07;37.86;99149.03;5031395;28;20038;-61
2022/07/03 03:10:29;;;;;;;5.35;4.63;;;;;;;26.09;37.89;99142.09;5032340;28;20053;-60
2022/07/03 03:13:10;;;;;;;7.07;4.90;;;;;;;26.09;37.75;99149.44;5031140;28;20487;-60
2022/07/03 03:15:36;;;;;;;5.22;4.63;;;;;;;26.13;38.12;99142.97;5032214;28;20053;-60
2022/07/03 03:18:05;;;;;;;6.97;4.40;;;;;;;26.41;37.69;99142.16;5032587;28;20036;-60
2022/07/03 03:20:32;;;;;;;7.30;4.90;;;;;;;26.44;37.71;99139.53;5032211;28;20041;-60
2022/07/03 03:23:24;;;;;;;6.60;4.85;;;;;;;26.71;37.47;99145.28;5031037;28;20045;-60
2022/07/03 03:25:53;;;;;;;8.85;4.70;;;;;;;27.01;37.00;99150.25;5028091;28;20088;-60
2022/07/03 03:28:19;;;;;;;6.07;4.60;;;;;;;26.69;37.79;99139.41;5030977;28;20455;-61
2022/07/03 03:30:45;;;;;;;7.07;4.50;;;;;;;26.73;37.73;99137.53;5030698;28;20128;-61
2022/07/03 03:33:11;;;;;;;5.95;4.18;;;;;;;26.87;37.67;99145.25;5047187;28;20427;-61
2022/07/03 03:35:38;;;;;;;10.02;4.88;;;;;;;26.71;37.93;99137.91;5030820;28;20046;-61
2022/07/03 03:38:04;;;;;;;6.70;4.35;;;;;;;26.70;37.91;99138.25;5032276;28;20055;-60
2022/07/03 03:40:32;;;;;;;8.32;4.50;;;;;;;26.97;37.54;99144.72;5030849;28;20049;-60
2022/07/03 03:42:57;;;;;;;6.22;4.65;;;;;;;26.99;37.56;99139.72;5032092;28;20454;-60
2022/07/03 03:45:23;;;;;;;6.80;4.80;;;;;;;26.82;38.26;99148.25;5031501;28;20519;-60
2022/07/03 03:47:49;;;;;;;6.80;4.50;;;;;;;27.01;37.73;99140.16;5031618;28;20132;-60
2022/07/03 03:50:14;;;;;;;8.45;5.03;;;;;;;27.34;37.41;99141.72;5030771;28;20144;-60
2022/07/03 03:52:41;;;;;;;7.82;5.10;;;;;;;27.16;37.80;99141.31;5013979;28;20143;-61
2022/07/03 03:55:09;;;;;;;8.40;5.57;;;;;;;27.39;37.61;99136.00;5031841;28;20049;-60
2022/07/03 03:57:36;;;;;;;15.32;5.18;;;;;;;27.55;37.26;99142.16;5030478;28;20330;-60
2022/07/03 04:00:03;;;;;;;6.03;4.68;;;;;;;27.50;37.03;99131.56;5031470;28;20057;-61
2022/07/03 04:02:38;;;;;;;5.47;4.63;;;;;;;27.76;37.33;99132.84;5031512;28;20048;-60
2022/07/03 04:05:05;;;;;;;5.90;5.10;;;;;;;27.59;37.73;99123.97;5014003;28;20046;-61
2022/07/03 04:07:30;;;;;;;8.02;4.95;;;;;;;27.34;37.85;99126.16;5030260;28;20060;-60
2022/07/03 04:09:56;;;;;;;7.00;5.40;;;;;;;27.40;38.43;99129.41;5031589;28;20098;-60
2022/07/03 04:12:22;;;;;;;7.47;4.68;;;;;;;27.34;38.48;99126.16;5030346;28;20384;-61
2022/07/03 04:14:47;;;;;;;6.15;5.25;;;;;;;27.12;38.93;99124.88;5031471;28;20053;-61
2022/07/03 04:17:13;;;;;;;5.65;5.00;;;;;;;27.12;39.45;99124.88;5030202;28;20132;-60
2022/07/03 04:19:39;;;;;;;6.53;5.18;;;;;;;27.07;39.46;99129.81;5031481;28;20131;-60
2022/07/03 04:22:08;;;;;;;6.85;4.97;;;;;;;27.37;38.77;99133.63;5030367;28;20498;-60
2022/07/03 04:24:37;;;;;;;5.97;4.72;;;;;;;27.35;38.95;99127.72;5031221;28;20072;-60
2022/07/03 04:27:03;;;;;;;9.53;5.57;;;;;;;27.66;38.42;99128.00;5031432;28;20384;-61
2022/07/03 04:29:29;;;;;;;7.50;5.15;;;;;;;27.70;38.55;99131.56;5031407;28;20058;-61
2022/07/03 04:31:54;;;;;;;8.65;5.20;;;;;;;27.92;38.14;99130.88;5030198;28;20136;-59
2022/07/03 04:34:20;;;;;;;6.13;5.53;;;;;;;28.09;38.61;99124.22;5029819;28;20494;-60
2022/07/03 04:36:46;;;;;;;6.53;4.90;;;;;;;28.15;38.10;99130.13;5031404;28;20046;-59
2022/07/03 04:39:12;;;;;;;8.05;5.70;;;;;;;28.12;37.75;99128.94;5031344;28;20042;-60
2022/07/03 04:41:38;;;;;;;6.78;5.68;;;;;;;28.07;38.06;99130.00;5031297;28;20379;-60
2022/07/03 04:44:04;;;;;;;7.25;5.93;;;;;;;27.88;38.94;99129.22;5029902;28;20613;-60
2022/07/03 04:46:29;;;;;;;8.25;5.15;;;;;;;28.04;39.20;99127.22;5013372;28;20054;-60
2022/07/03 04:48:55;;;;;;;6.80;5.55;;;;;;;27.90;38.84;99129.66;5031230;28;20526;-60
2022/07/03 04:51:21;;;;;;;6.55;5.68;;;;;;;27.87;39.21;99133.91;5031273;28;20569;-59
2022/07/03 04:53:46;;;;;;;8.70;5.25;;;;;;;27.99;39.09;99135.69;5031141;28;20076;-60
2022/07/03 04:56:12;;;;;;;10.88;6.43;;;;;;;27.94;39.70;99133.25;5030869;28;20042;-59
2022/07/03 04:58:38;;;;;;;6.68;5.70;;;;;;;27.87;39.49;99133.13;5048488;28;20095;-60
2022/07/03 05:01:03;;;;;;;7.43;5.95;;;;;;;28.12;38.67;99128.94;5033488;28;20399;-60
2022/07/03 05:03:29;;;;;;;9.77;6.43;;;;;;;28.02;39.06;99135.75;5035124;28;20128;-60
2022/07/03 05:05:55;;;;;;;7.25;6.20;;;;;;;28.06;39.03;99124.91;5034602;28;20058;-61
2022/07/03 05:08:21;;;;;;;6.95;6.25;;;;;;;28.05;39.73;99121.41;5035047;28;20041;-61
2022/07/03 05:10:47;;;;;;;8.55;6.47;;;;;;;28.17;38.86;99120.44;5034384;28;20566;-60
2022/07/03 05:13:12;;;;;;;7.93;6.18;;;;;;;28.28;39.58;99126.09;5034324;28;20128;-60
2022/07/03 05:15:38;;;;;;;9.52;6.50;;;;;;;28.12;39.95;99125.41;5034242;28;20053;-60
2022/07/03 05:18:04;;;;;;;7.47;6.75;;;;;;;27.80;40.04;99123.66;5034871;28;20048;-60
2022/07/03 05:20:30;;;;;;;9.45;6.72;;;;;;;27.72;40.33;99123.84;5049975;28;20484;-60
2022/07/03 05:22:57;;;;;;;7.63;6.60;;;;;;;27.69;40.90;99119.09;5034715;28;20045;-60
2022/07/03 05:25:24;;;;;;;9.23;6.43;;;;;;;27.66;40.32;99126.06;5034549;28;20069;-60
2022/07/03 05:27:50;;;;;;;8.07;6.40;;;;;;;27.47;40.87;99115.16;5033259;28;20355;-59
2022/07/03 05:30:16;;;;;;;6.88;6.20;;;;;;;27.43;41.01;99120.50;5034186;28;20714;-60
2022/07/03 05:32:42;;;;;;;7.85;6.93;;;;;;;27.38;41.14;99124.31;5034477;28;20450;-60
2022/07/03 05:35:08;;;;;;;9.73;6.47;;;;;;;27.12;41.56;99118.63;5033967;28;20140;-60
2022/07/03 05:37:34;;;;;;;8.07;6.95;;;;;;;26.94;41.93;99115.50;5032810;28;20041;-59
2022/07/03 05:40:00;;;;;;;7.85;6.50;;;;;;;26.96;42.31;99115.94;5049291;28;20045;-60
2022/07/03 05:42:25;;;;;;;9.00;6.80;;;;;;;26.99;42.09;99114.47;5034100;28;20053;-59
2022/07/03 05:44:51;;;;;;;8.23;6.75;;;;;;;26.89;42.54;99119.31;5034129;28;20052;-60
2022/07/03 05:47:17;;;;;;;8.82;7.18;;;;;;;26.90;42.70;99115.44;5034202;28;20041;-59
2022/07/03 05:49:43;;;;;;;11.57;7.15;;;;;;;26.86;42.95;99114.56;5033668;28;20060;-59
2022/07/03 05:52:08;;;;;;;9.10;7.00;;;;;;;26.65;43.27;99116.75;5032546;28;20048;-60
2022/07/03 05:54:34;;;;;;;9.57;7.22;;;;;;;26.63;43.30;99114.41;5032163;28;20114;-59
2022/07/03 05:57:00;;;;;;;7.50;6.78;;;;;;;26.55;43.04;99120.00;5033994;28;20045;-61
2022/07/03 05:59:25;;;;;;;9.05;7.05;;;;;;;26.54;43.33;99116.50;5033685;28;20065;-60
2022/07/03 06:01:51;;;;;;;7.70;6.75;;;;;;;26.56;42.67;99111.53;5033888;28;20557;-60
2022/07/03 06:04:17;;;;;;;7.13;6.43;;;;;;;26.50;43.59;99110.19;5033493;28;20404;-61
2022/07/03 06:06:43;;;;;;;8.73;7.47;;;;;;;26.19;44.17;99119.06;5033853;28;20103;-61
2022/07/03 06:09:08;;;;;;;7.78;7.00;;;;;;;26.14;43.67;99120.09;5032927;28;20556;-60
2022/07/03 06:11:34;;;;;;;9.70;7.18;;;;;;;26.24;43.80;99116.91;5033360;28;20045;-59
2022/07/03 06:14:00;;;;;;;8.07;6.85;;;;;;;26.22;44.09;99112.94;5033279;28;20045;-61
2022/07/03 06:16:26;;;;;;;8.27;6.85;;;;;;;26.20;43.51;99113.28;5033639;28;20041;-60
2022/07/03 06:18:51;;;;;;;9.43;6.50;;;;;;;26.10;44.83;99110.31;5033496;28;20495;-60
2022/07/03 06:21:17;;;;;;;7.45;6.75;;;;;;;26.14;45.03;99120.09;5033268;28;20076;-60
2022/07/03 06:23:43;;;;;;;10.65;7.28;;;;;;;26.20;44.38;99124.16;5033397;28;20041;-60
2022/07/03 06:26:09;;;;;;;7.60;6.32;;;;;;;26.28;43.66;99112.34;5033040;28;20156;-59
2022/07/03 06:28:34;;;;;;;7.60;6.80;;;;;;;26.26;44.39;99113.81;5032212;28;20103;-60
2022/07/03 06:31:00;;;;;;;7.55;6.60;;;;;;;26.34;43.97;99120.22;5033097;28;20514;-61
2022/07/03 06:33:26;;;;;;;8.18;6.40;;;;;;;26.30;44.56;99117.44;5033428;28;20049;-60
2022/07/03 06:35:51;;;;;;;8.75;7.13;;;;;;;26.38;44.11;99110.22;5033203;28;20041;-61
2022/07/03 06:38:17;;;;;;;8.20;7.28;;;;;;;26.41;43.60;99113.03;5033410;28;20041;-61
2022/07/03 06:40:43;;;;;;;8.75;6.75;;;;;;;26.42;43.91;99106.47;5033074;28;20048;-61
2022/07/03 06:43:08;;;;;;;7.82;7.00;;;;;;;26.55;43.54;99109.13;5032799;28;20076;-61
2022/07/03 06:45:34;;;;;;;7.90;6.95;;;;;;;26.59;43.89;99110.00;5032871;28;20049;-61
2022/07/03 06:48:00;;;;;;;12.30;7.55;;;;;;;26.64;44.69;99107.81;5033183;28;20100;-60
2022/07/03 06:50:25;;;;;;;11.35;7.78;;;;;;;26.65;44.85;99106.69;5032880;28;20049;-60
2022/07/03 06:52:51;;;;;;;8.20;6.90;;;;;;;26.67;43.86;99115.28;5032817;28;20041;-61
2022/07/03 06:55:17;;;;;;;10.45;7.40;;;;;;;26.58;43.79;99109.22;5032567;28;20073;-60
2022/07/03 06:57:42;;;;;;;7.60;6.90;;;;;;;26.62;43.78;99112.03;5032565;28;20120;-60
2022/07/03 07:00:09;;;;;;;7.85;7.03;;;;;;;26.65;43.78;99108.59;5031258;28;20459;-60
2022/07/03 07:02:35;;;;;;;9.70;7.30;;;;;;;26.67;43.30;99111.75;5014792;28;20146;-60
2022/07/03 07:05:00;;;;;;;7.47;6.55;;;;;;;26.71;43.60;99109.94;5031078;28;20168;-60
2022/07/03 07:07:26;;;;;;;11.93;7.25;;;;;;;26.81;43.27;99105.88;5032285;28;20041;-61
2022/07/03 07:09:52;;;;;;;9.00;7.10;;;;;;;26.78;43.07;99114.75;5032266;28;20052;-60
2022/07/03 07:12:17;;;;;;;7.43;6.72;;;;;;;26.82;42.02;99105.53;5032158;28;20053;-61
2022/07/03 07:14:43;;;;;;;14.00;12.45;;;;;;;26.79;42.26;99111.66;5031976;28;20057;-61
2022/07/03 07:17:09;;;;;;;7.72;6.93;;;;;;;26.83;42.67;99118.00;5030931;28;20072;-61
2022/07/03 07:19:34;;;;;;;6.82;6.20;;;;;;;26.82;40.64;99110.19;5031906;28;20119;-61
2022/07/03 07:22:01;;;;;;;6.57;5.97;;;;;;;26.76;40.39;99106.16;5031883;28;20056;-60
2022/07/03 07:24:27;;;;;;;7.05;5.95;;;;;;;26.92;40.54;99112.38;5032237;28;20041;-61
2022/07/03 07:26:53;;;;;;;8.98;6.55;;;;;;;26.96;40.88;99108.56;5032243;28;20038;-61
2022/07/03 07:29:19;;;;;;;9.65;6.65;;;;;;;26.97;40.65;99106.63;5031005;28;20124;-61
2022/07/03 07:31:45;;;;;;;7.00;6.30;;;;;;;27.06;40.42;99109.97;5031946;28;20468;-60
2022/07/03 07:34:11;;;;;;;9.63;6.68;;;;;;;27.20;40.37;99109.53;5031788;28;20049;-59
2022/07/03 07:36:37;;;;;;;6.90;6.20;;;;;;;27.17;40.61;99105.56;5047230;28;20593;-60
2022/07/03 07:39:03;;;;;;;6.97;6.28;;;;;;;27.11;39.97;99106.19;5032098;28;20045;-61
2022/07/03 07:41:29;;;;;;;10.00;6.10;;;;;;;27.10;39.48;99110.06;5031821;28;20499;-61
2022/07/03 07:43:54;;;;;;;8.13;6.43;;;;;;;27.13;40.19;99106.63;5031888;28;20049;-61
2022/07/03 07:46:20;;;;;;;8.93;6.50;;;;;;;27.16;38.93;99095.84;5031669;28;20041;-61
2022/07/03 07:48:45;;;;;;;13.15;6.45;;;;;;;27.22;39.30;99111.91;5031591;28;20041;-62
2022/07/03 07:51:11;;;;;;;6.90;6.20;;;;;;;27.28;38.30;99105.03;5031359;28;20049;-60
2022/07/03 07:53:37;;;;;;;6.80;6.10;;;;;;;27.24;38.71;99115.84;5031405;28;20099;-62
2022/07/03 07:56:03;;;;;;;7.22;6.53;;;;;;;27.26;39.08;99104.59;5031497;28;20041;-61
2022/07/03 07:58:29;;;;;;;7.10;6.20;;;;;;;27.36;39.56;99112.22;5031885;28;20045;-60
2022/07/03 08:06:23;;;;;;;8.25;6.85;;;;;;;27.58;38.50;99110.72;5030229;28;20045;-61
2022/07/03 08:08:49;;;;;;;8.40;5.90;;;;;;;27.39;36.93;99108.78;5031526;28;20041;-60
2022/07/03 08:11:15;;;;;;;8.35;5.68;;;;;;;27.46;37.34;99113.56;5031540;28;20502;-60
2022/07/03 08:13:40;;;;;;;6.90;5.57;;;;;;;27.45;36.62;99128.34;5031275;28;20076;-61
2022/07/03 08:16:06;;;;;;;7.80;6.10;;;;;;;27.43;37.35;99120.50;5031189;28;20052;-61
2022/07/03 08:18:32;;;;;;;7.93;5.75;;;;;;;27.48;38.03;99111.28;5031724;28;20041;-60
2022/07/03 08:20:57;;;;;;;6.22;5.63;;;;;;;27.46;37.80;99122.53;5031521;28;20041;-61
2022/07/03 08:23:23;;;;;;;7.65;6.43;;;;;;;27.47;37.81;99120.59;5031541;28;20125;-60
2022/07/03 08:25:49;;;;;;;6.85;5.93;;;;;;;27.59;37.81;99117.72;5013355;28;20095;-62
2022/07/03 08:28:14;;;;;;;6.85;5.80;;;;;;;27.75;37.16;99117.69;5031672;28;20038;-60
2022/07/03 08:30:40;;;;;;;6.45;5.85;;;;;;;27.68;37.71;99122.97;5030041;28;20132;-59
2022/07/03 08:33:06;;;;;;;7.57;6.20;;;;;;;27.59;37.90;99123.16;5034940;28;20501;-61
2022/07/03 08:35:32;;;;;;;6.80;6.20;;;;;;;27.47;38.06;99123.31;5035200;28;20042;-63
2022/07/03 08:37:58;;;;;;;9.13;6.20;;;;;;;27.33;38.60;99126.53;5035581;28;20072;-61
2022/07/03 08:40:23;;;;;;;6.45;5.78;;;;;;;27.34;37.89;99128.09;5035424;28;20037;-60
2022/07/03 08:42:53;;;;;;;7.05;5.13;;;;;;;27.40;36.97;99122.00;5035462;28;20499;-60
2022/07/03 08:45:19;;;;;;;6.95;5.57;;;;;;;27.46;37.10;99111.63;5035282;28;20073;-61
2022/07/03 08:47:47;;;;;;;6.97;5.53;;;;;;;27.43;36.98;99114.28;5035362;28;20072;-59
2022/07/03 08:50:15;;;;;;;6.05;5.45;;;;;;;27.59;36.61;99121.25;5035203;28;20049;-60
2022/07/03 08:52:42;;;;;;;5.90;5.35;;;;;;;27.54;35.86;99118.03;5034813;28;20049;-60
2022/07/03 08:55:09;;;;;;;5.38;4.97;;;;;;;27.62;34.20;99115.09;5035050;28;20053;-60
2022/07/03 08:57:37;;;;;;;5.72;5.05;;;;;;;27.54;35.02;99123.47;5033635;28;20507;-61
2022/07/03 09:00:05;;;;;;;5.65;5.07;;;;;;;27.58;35.47;99108.00;5033289;28;20077;-61
2022/07/03 09:02:34;;;;;;;6.60;5.80;;;;;;;27.60;35.35;99108.44;5034933;28;20060;-60
2022/07/03 09:05:02;;;;;;;5.72;4.82;;;;;;;27.73;34.38;99111.78;5034909;28;20461;-60
2022/07/03 09:07:36;;;;;;;6.00;5.47;;;;;;;27.69;34.66;99106.28;5033349;28;20523;-60
2022/07/03 09:10:04;;;;;;;5.95;5.40;;;;;;;27.77;34.71;99104.50;5034578;28;20050;-60
2022/07/03 09:12:34;;;;;;;6.45;4.90;;;;;;;27.69;34.65;99119.09;5034812;28;20049;-61
2022/07/03 09:15:02;;;;;;;5.80;5.20;;;;;;;27.67;34.11;99127.63;5034460;28;20096;-60
2022/07/03 09:17:29;;;;;;;6.60;4.57;;;;;;;27.66;32.63;99114.38;5033500;28;20057;-61
2022/07/03 09:19:57;;;;;;;5.90;4.55;;;;;;;27.68;32.17;99122.97;5034627;28;20491;-60
2022/07/03 09:22:26;;;;;;;4.93;3.58;;;;;;;27.64;26.64;99110.06;5034356;28;20038;-61
2022/07/03 09:25:14;;;;;;;4.53;3.47;;;;;;;27.64;29.13;99125.63;5034583;28;20053;-63
2022/07/03 09:27:51;;;;;;;4.03;3.70;;;;;;;27.66;30.33;99115.16;5034830;28;20041;-60
2022/07/03 09:30:17;;;;;;;4.40;4.00;;;;;;;27.78;31.39;99117.78;5034191;28;20056;-60
2022/07/03 09:32:45;;;;;;;6.43;4.20;;;;;;;27.68;30.13;99120.25;5034550;28;20045;-60
2022/07/03 09:35:25;;;;;;;5.03;4.15;;;;;;;27.68;30.90;99121.06;5034121;28;20422;-60
2022/07/03 09:37:58;;;;;;;4.78;4.28;;;;;;;27.75;31.91;99125.84;5034187;28;20120;-60
2022/07/03 09:40:25;;;;;;;4.45;4.05;;;;;;;27.70;31.25;99124.19;5032795;28;20426;-60
2022/07/03 09:43:07;;;;;;;4.25;3.85;;;;;;;27.62;30.71;99108.88;5034014;28;20080;-61
2022/07/03 09:45:58;;;;;;;4.95;4.18;;;;;;;27.61;31.81;99116.22;5033974;28;20056;-60
2022/07/03 09:48:27;;;;;;;7.72;4.70;;;;;;;27.57;32.81;99111.88;5033039;28;20115;-60
2022/07/03 09:51:13;;;;;;;5.55;4.78;;;;;;;27.56;33.54;99107.56;5032928;28;20068;-61
2022/07/03 09:53:59;;;;;;;5.03;4.53;;;;;;;27.68;33.64;99106.63;5033389;28;20522;-60
2022/07/03 09:56:27;;;;;;;4.75;4.35;;;;;;;27.70;33.38;99102.41;5034032;28;20053;-61
2022/07/03 09:59:04;;;;;;;5.57;5.03;;;;;;;27.75;34.28;99104.06;5032264;28;20041;-60
2022/07/03 10:01:30;;;;;;;5.25;4.75;;;;;;;27.68;33.73;99106.63;5032318;28;20045;-60
2022/07/03 10:04:20;;;;;;;5.93;4.85;;;;;;;27.73;33.24;99115.28;5033556;28;20041;-61
2022/07/03 10:06:51;;;;;;;5.22;4.70;;;;;;;27.74;34.27;99114.16;5032062;28;20499;-60
2022/07/03 10:09:25;;;;;;;5.97;5.32;;;;;;;27.78;35.11;99104.16;5033551;28;20067;-59
2022/07/03 10:11:51;;;;;;;7.40;5.35;;;;;;;27.77;35.25;99101.78;5033780;28;20037;-60
2022/07/03 10:14:19;;;;;;;6.20;5.18;;;;;;;27.83;35.43;99095.69;5033481;28;20068;-60
2022/07/03 10:16:46;;;;;;;7.95;5.88;;;;;;;27.88;34.98;99104.72;5033610;28;20064;-60
2022/07/03 10:19:18;;;;;;;5.93;4.97;;;;;;;27.89;34.12;99096.19;5033581;28;20048;-61
2022/07/03 10:21:49;;;;;;;6.55;5.63;;;;;;;27.85;34.67;99093.41;5032195;28;20067;-61
2022/07/03 10:24:16;;;;;;;5.28;4.78;;;;;;;27.93;33.52;99104.44;5033510;28;20128;-61
2022/07/03 10:26:41;;;;;;;7.10;5.00;;;;;;;27.85;34.49;99122.56;5031819;28;20041;-60
2022/07/03 10:29:10;;;;;;;5.85;5.25;;;;;;;27.92;33.93;99109.09;5031811;28;20568;-59
2022/07/03 10:31:38;;;;;;;7.65;4.82;;;;;;;27.99;33.80;99113.88;5015430;28;20045;-61
2022/07/03 10:34:04;;;;;;;7.88;5.60;;;;;;;28.01;33.80;99106.16;5033255;28;20049;-61
2022/07/03 10:36:30;;;;;;;6.20;5.28;;;;;;;28.01;34.02;99090.59;5033062;28;20037;-61
2022/07/03 10:38:57;;;;;;;6.28;5.68;;;;;;;28.00;34.66;99093.66;5032909;28;20549;-61
2022/07/03 10:46:58;;;;;;;5.60;4.25;;;;;;;27.88;30.85;99099.25;5031844;28;20054;-61
2022/07/03 10:49:24;;;;;;;5.18;4.43;;;;;;;27.87;31.98;99094.97;5031838;28;20042;-60
2022/07/03 10:51:59;;;;;;;4.88;4.40;;;;;;;27.84;31.97;99083.66;5031614;28;20411;-60
2022/07/03 10:54:38;;;;;;;4.90;4.50;;;;;;;27.88;31.50;99089.16;5032328;28;20537;-61
2022/07/03 10:57:08;;;;;;;6.53;4.60;;;;;;;27.91;32.44;99083.00;5032264;28;20041;-60
2022/07/03 10:59:34;;;;;;;6.30;4.50;;;;;;;27.91;31.33;99090.38;5032464;28;20292;-60
2022/07/03 11:02:34;;;;;;;5.55;4.47;;;;;;;27.94;32.01;99086.94;5031214;28;20041;-60
2022/07/03 11:05:03;;;;;;;5.47;4.97;;;;;;;27.97;32.31;99078.84;5032340;28;20445;-60
2022/07/03 11:07:34;;;;;;;;;;;;;;;28.01;30.62;99079.69;5033081;28;20498;-60
2022/07/03 11:10:05;;;;;;;4.63;3.45;;;;;;;27.97;29.46;99081.56;5032539;28;19987;-61
2022/07/03 11:12:53;;;;;;;4.95;3.65;;;;;;;27.95;28.89;99067.50;5032395;28;20073;-61
2022/07/03 11:15:34;;;;;;;4.63;3.30;;;;;;;27.98;29.36;99060.56;5031928;28;20061;-61
2022/07/03 11:18:08;;;;;;;5.20;3.88;;;;;;;27.99;29.58;99079.25;5032089;28;20509;-60
2022/07/03 11:20:39;;;;;;;5.25;3.97;;;;;;;28.00;30.87;99066.41;5030902;28;20053;-60
2022/07/03 11:23:27;;;;;;;5.25;3.72;;;;;;;28.05;30.82;99077.81;5032599;28;20103;-61
2022/07/03 11:26:07;;;;;;;3.60;3.30;;;;;;;28.03;28.95;99071.94;5032047;28;20049;-61
2022/07/03 11:28:33;;;;;;;5.18;4.15;;;;;;;28.01;31.00;99068.78;5032045;28;20510;-61
2022/07/03 11:31:16;;;;;;;6.55;4.25;;;;;;;28.04;31.62;99070.78;5032236;28;20042;-60
2022/07/03 11:33:51;;;;;;;4.78;4.30;;;;;;;28.01;32.33;99073.47;5032043;28;20095;-60
2022/07/03 11:36:17;;;;;;;5.45;4.80;;;;;;;28.02;32.51;99067.63;5031917;28;20064;-60
2022/07/03 11:38:44;;;;;;;7.32;4.32;;;;;;;28.04;31.83;99075.47;5031977;28;20045;-60
2022/07/03 11:41:11;;;;;;;5.40;4.03;;;;;;;28.01;31.79;99078.91;5030665;28;20048;-60
2022/07/03 11:43:37;;;;;;;4.40;4.00;;;;;;;28.00;31.03;99069.94;5031860;28;20418;-60
2022/07/03 11:46:04;;;;;;;4.78;3.92;;;;;;;28.06;31.33;99068.50;5031934;28;20049;-61
2022/07/03 11:48:31;;;;;;;7.28;4.22;;;;;;;28.05;30.70;99047.06;5046998;28;20506;-61
2022/07/03 11:51:01;;;;;;;7.28;3.75;;;;;;;28.07;31.18;99061.09;5031841;28;20414;-60